Pat Boone — WDH3305 — position and weather

sailwx.info

Track history (hours):
 
Tides and Currents Weather Stations Pressure Air Temp Water Temp Dewpoint Dewpoint Depression Visibility Wind Speed Wind Dir Waves Ship Positions

Pat Boone

Owner: Boone Towing, Channelview, TX. More information available from US FCC via Universal Licensing System and Coast Guard Vessel Documentation Center.

Last reported at 2018-May-20 12:04 UTC. Time now 2018-May-20 15:29 UTC.
Position N 29°46' W 095°05'.

Length 15 m; draft 3 m.

MMSI: 367606370.

Date/timePositionNaut miles runAvg speedWind from/ knotsBaromVisibWave heightAir tempDewpointWater temp
2018-May-20 12:04N 29°46' W 095°05'3 6.2
2018-May-20 11:40N 29°44' W 095°03'1 6.3
2018-May-20 11:30N 29°44' W 095°01'3 6.0
2018-May-20 11:00N 29°41' W 094°59'3 6.3
2018-May-20 10:30N 29°38' W 094°58'3 6.1
2018-May-20 10:01N 29°36' W 094°57'3 6.5
2018-May-20 09:30N 29°33' W 094°54'3 6.2
2018-May-20 09:01N 29°30' W 094°52'4 6.0
2018-May-20 08:21N 29°27' W 094°50'2 5.8
2018-May-20 08:00N 29°25' W 094°50'3 5.4
2018-May-20 07:29N 29°23' W 094°48'2 4.4
2018-May-20 07:00N 29°21' W 094°47'1 0.2
2018-May-20 00:13N 29°21' W 094°45'0 0.0
2018-May-19 23:54N 29°21' W 094°45'0 0.0
2018-May-19 23:31N 29°21' W 094°45'13 4.3
2018-May-19 20:30N 29°32' W 094°54'3 6.3
2018-May-19 20:00N 29°34' W 094°56'3 6.3
2018-May-19 19:29N 29°37' W 094°57'3 6.4
2018-May-19 19:00N 29°40' W 094°59'6 0.3
2018-May-18 19:34N 29°44' W 095°03'1 6.1
2018-May-18 19:29N 29°44' W 095°03'2 5.1
2018-May-18 19:00N 29°42' W 095°01'3 5.1
2018-May-18 18:30N 29°41' W 094°58'2 4.5
2018-May-18 18:00N 29°40' W 094°56'1 2.2
2018-May-18 17:23N 29°42' W 094°55'1 1.0
2018-May-18 16:49N 29°42' W 094°56'1 2.3
2018-May-18 16:29N 29°43' W 094°56'1 1.7
2018-May-18 15:59N 29°44' W 094°56'1 2.8
2018-May-18 15:27N 29°45' W 094°56'1 0.3
2018-May-18 11:27N 29°46' W 094°55'0 0.0
2018-May-18 10:30N 29°46' W 094°55'0 0.0
2018-May-18 09:56N 29°46' W 094°55'0 0.0
2018-May-18 09:30N 29°46' W 094°55'0 0.0
2018-May-18 09:00N 29°46' W 094°55'0 0.0
2018-May-18 08:30N 29°46' W 094°55'0 0.0
2018-May-18 08:00N 29°46' W 094°55'0 0.0
2018-May-18 07:30N 29°46' W 094°55'0 0.0
2018-May-18 07:00N 29°46' W 094°55'0 0.0
2018-May-18 06:30N 29°46' W 094°55'0 0.0
2018-May-18 06:00N 29°46' W 094°55'0 0.0
2018-May-18 05:30N 29°46' W 094°55'0 0.0
2018-May-18 05:00N 29°46' W 094°55'0 0.0
2018-May-18 04:30N 29°46' W 094°55'0 0.0
2018-May-18 04:00N 29°46' W 094°55'0 0.0
2018-May-18 03:30N 29°46' W 094°55'0 0.0
2018-May-18 03:00N 29°46' W 094°55'0 0.0
2018-May-18 02:30N 29°46' W 094°55'0 0.0
2018-May-18 02:00N 29°46' W 094°55'3 1.2
2018-May-17 23:28N 29°43' W 094°57'1 2.5
2018-May-17 22:58N 29°42' W 094°56'1 1.4
2018-May-17 22:30N 29°42' W 094°55'2 3.2
2018-May-17 22:00N 29°40' W 094°56'2 3.7
2018-May-17 21:30N 29°41' W 094°58'2 3.9
2018-May-17 21:00N 29°42' W 094°60'7 0.9
2018-May-17 13:06N 29°46' W 095°06'0 0.0
2018-May-17 12:40N 29°46' W 095°06'0 0.0
2018-May-17 12:24N 29°46' W 095°06'0 0.8
2018-May-17 11:56N 29°47' W 095°06'0 0.2
2018-May-17 10:44N 29°47' W 095°06'0 0.0
2018-May-17 10:18N 29°47' W 095°06'0 0.0
2018-May-17 09:58N 29°47' W 095°06'0 0.0
2018-May-17 09:26N 29°47' W 095°06'0 0.7
2018-May-17 09:00N 29°47' W 095°06'0 0.5
2018-May-17 08:07N 29°47' W 095°06'1 0.3
2018-May-17 05:53N 29°46' W 095°06'2 4.2
2018-May-17 05:25N 29°45' W 095°04'2 3.9
2018-May-17 05:00N 29°44' W 095°03'0 0.0
2018-May-17 04:30N 29°44' W 095°03'0 0.0
2018-May-17 04:00N 29°44' W 095°03'0 0.0
2018-May-17 03:30N 29°44' W 095°03'0 0.0
2018-May-17 03:00N 29°44' W 095°03'0 0.4
2018-May-17 02:30N 29°44' W 095°03'3 6.1
2018-May-17 02:00N 29°46' W 095°06'1 1.8
2018-May-17 01:29N 29°47' W 095°06'2 3.1
2018-May-17 00:55N 29°46' W 095°04'3 7.7
2018-May-17 00:28N 29°44' W 095°01'3 7.3
2018-May-17 00:00N 29°41' W 094°59'0 0.8
2018-May-16 23:30N 29°41' W 094°58'0 0.9
2018-May-16 23:00N 29°41' W 094°58'2 4.4
2018-May-16 22:30N 29°41' W 094°55'2 1.4
2018-May-16 20:45N 29°43' W 094°57'0 0.0
2018-May-16 17:57N 29°43' W 094°57'1 0.6
2018-May-16 16:48N 29°43' W 094°56'0 0.1
2018-May-16 16:16N 29°43' W 094°56'1 1.9
2018-May-16 15:48N 29°42' W 094°55'1 2.5
2018-May-16 15:30N 29°41' W 094°55'2 3.5
2018-May-16 15:00N 29°41' W 094°57'2 4.9
2018-May-16 14:30N 29°42' W 094°60'3 5.8
2018-May-16 13:58N 29°44' W 095°02'3 6.4
2018-May-16 13:30N 29°46' W 095°05'1 2.4
2018-May-16 13:00N 29°47' W 095°06'0 0.0
2018-May-16 12:30N 29°47' W 095°06'1 1.6
2018-May-16 12:00N 29°46' W 095°06'1 1.7
2018-May-16 11:30N 29°46' W 095°05'3 5.2
2018-May-16 11:01N 29°44' W 095°03'3 5.4
2018-May-16 10:28N 29°42' W 095°00'2 4.6
2018-May-16 10:00N 29°41' W 094°58'2 4.1
2018-May-16 09:30N 29°40' W 094°56'2 3.1
2018-May-16 08:59N 29°42' W 094°55'1 1.3
2018-May-16 08:30N 29°42' W 094°56'1 1.5
2018-May-16 08:00N 29°43' W 094°56'0 0.0
2018-May-16 07:30N 29°43' W 094°56'1 1.4
2018-May-16 07:00N 29°42' W 094°56'1 1.2
2018-May-16 06:30N 29°42' W 094°55'1 2.9
2018-May-16 06:00N 29°41' W 094°56'2 3.9
2018-May-16 05:30N 29°41' W 094°58'2 4.5
2018-May-16 04:59N 29°40' W 094°56'2 3.1
2018-May-16 04:30N 29°42' W 094°56'1 1.8
2018-May-16 04:00N 29°43' W 094°56'0 0.1
2018-May-16 03:30N 29°43' W 094°56'0 0.0
2018-May-16 02:59N 29°43' W 094°56'1 1.9
2018-May-16 02:29N 29°42' W 094°55'2 3.3
2018-May-16 02:00N 29°40' W 094°56'3 5.5
2018-May-16 01:30N 29°41' W 094°59'4 6.9
2018-May-16 01:00N 29°44' W 095°02'1 0.2
2018-May-15 18:32N 29°44' W 095°03'0 7.0
2018-May-15 18:30N 29°44' W 095°03'3 6.0
2018-May-15 17:59N 29°42' W 095°00'2 4.8
2018-May-15 17:30N 29°41' W 094°58'2 4.1
2018-May-15 16:58N 29°42' W 094°55'1 1.4
2018-May-15 16:04N 29°43' W 094°56'0 0.0
2018-May-15 15:53N 29°43' W 094°56'0 0.6
2018-May-15 15:26N 29°42' W 094°56'1 1.9
2018-May-15 14:52N 29°42' W 094°55'2 4.0
2018-May-15 14:26N 29°40' W 094°56'2 4.7
2018-May-15 14:00N 29°41' W 094°58'3 5.2
2018-May-15 13:30N 29°42' W 095°01'3 5.7
2018-May-15 13:00N 29°44' W 095°03'3 5.6
2018-May-15 12:30N 29°46' W 095°06'1 1.2
2018-May-15 12:00N 29°46' W 095°06'0 0.1
2018-May-15 11:30N 29°46' W 095°06'0 0.0
2018-May-15 11:00N 29°46' W 095°06'0 0.0
2018-May-15 10:30N 29°46' W 095°06'0 0.0
2018-May-15 09:58N 29°46' W 095°06'0 0.0
2018-May-15 09:30N 29°46' W 095°06'1 0.8
2018-May-15 08:29N 29°47' W 095°06'0 0.1
2018-May-15 06:58N 29°47' W 095°06'0 0.0
2018-May-15 06:29N 29°47' W 095°06'1 1.6
2018-May-15 05:57N 29°46' W 095°06'1 0.6
2018-May-15 03:31N 29°45' W 095°06'0 0.0
2018-May-15 03:28N 29°45' W 095°06'0 0.0
2018-May-15 02:58N 29°45' W 095°06'0 0.0
2018-May-15 02:26N 29°45' W 095°06'0 0.0
2018-May-15 02:00N 29°45' W 095°06'0 0.0
2018-May-15 01:30N 29°45' W 095°06'3 0.4
2018-May-14 17:45N 29°44' W 095°09'3 0.1
2018-May-12 21:47N 29°46' W 095°06'0 0.0
2018-May-12 20:34N 29°46' W 095°06'0 0.0
2018-May-12 20:15N 29°46' W 095°06'0 0.0
2018-May-12 17:29N 29°46' W 095°06'0 0.0
2018-May-12 14:26N 29°46' W 095°06'1 0.9
2018-May-12 13:53N 29°45' W 095°06'1 0.1
2018-May-12 00:16N 29°47' W 095°06'1 3.2
2018-May-11 23:58N 29°46' W 095°05'4 2.0
2018-May-11 22:10N 29°44' W 095°09'1 6.6
2018-May-11 22:00N 29°44' W 095°08'4 5.9
2018-May-11 21:25N 29°46' W 095°05'0 0.4
2018-May-11 21:01N 29°47' W 095°05'1 0.8
2018-May-11 19:21N 29°46' W 095°06'1 0.4
2018-May-11 17:28N 29°46' W 095°05'4 0.4
2018-May-11 07:18N 29°45' W 095°10'6 1.4
2018-May-11 02:58N 29°44' W 095°03'3 5.9
2018-May-11 02:30N 29°42' W 095°01'1 2.2
2018-May-11 02:00N 29°41' W 095°01'2 4.2
2018-May-11 01:30N 29°40' W 094°59'3 6.4
2018-May-11 01:00N 29°37' W 094°58'3 6.0
2018-May-11 00:30N 29°37' W 095°01'0 0.4
2018-May-11 00:00N 29°37' W 095°01'1 1.2
2018-May-10 23:30N 29°37' W 095°01'0 0.0
2018-May-10 23:00N 29°37' W 095°01'0 0.0
2018-May-10 22:30N 29°37' W 095°01'0 0.0
2018-May-10 22:00N 29°37' W 095°01'3 5.7
2018-May-10 21:30N 29°37' W 094°58'3 6.2
2018-May-10 21:00N 29°40' W 094°59'2 3.8
2018-May-10 20:30N 29°41' W 094°57'2 2.4
2018-May-10 19:53N 29°42' W 094°56'1 1.4
2018-May-10 19:22N 29°43' W 094°56'1 1.6
2018-May-10 18:47N 29°42' W 094°55'1 2.6
2018-May-10 18:30N 29°41' W 094°55'2 3.5
2018-May-10 18:00N 29°41' W 094°57'2 4.9
2018-May-10 17:29N 29°42' W 094°60'3 5.7
2018-May-10 16:59N 29°44' W 095°02'  
Track history (hours):
 
Tides and Currents Weather Stations Pressure Air Temp Water Temp Dewpoint Dewpoint Depression Visibility Wind Speed Wind Dir Waves Ship Positions

Pat Boone

Owner: Boone Towing, Channelview, TX. More information available from US FCC via Universal Licensing System and Coast Guard Vessel Documentation Center.

Last reported at 2018-May-20 12:04 UTC. Time now 2018-May-20 15:29 UTC.
Position N 29°46' W 095°05'.

Length 15 m; draft 3 m.

MMSI: 367606370.

Date/timePositionNaut miles runAvg speedWind from/ knotsBaromVisibWave heightAir tempDewpointWater temp
2018-May-20 12:04N 29°46' W 095°05'3 6.2
2018-May-20 11:40N 29°44' W 095°03'1 6.3
2018-May-20 11:30N 29°44' W 095°01'3 6.0
2018-May-20 11:00N 29°41' W 094°59'3 6.3
2018-May-20 10:30N 29°38' W 094°58'3 6.1
2018-May-20 10:01N 29°36' W 094°57'3 6.5
2018-May-20 09:30N 29°33' W 094°54'3 6.2
2018-May-20 09:01N 29°30' W 094°52'4 6.0
2018-May-20 08:21N 29°27' W 094°50'2 5.8
2018-May-20 08:00N 29°25' W 094°50'3 5.4
2018-May-20 07:29N 29°23' W 094°48'2 4.4
2018-May-20 07:00N 29°21' W 094°47'1 0.2
2018-May-20 00:13N 29°21' W 094°45'0 0.0
2018-May-19 23:54N 29°21' W 094°45'0 0.0
2018-May-19 23:31N 29°21' W 094°45'13 4.3
2018-May-19 20:30N 29°32' W 094°54'3 6.3
2018-May-19 20:00N 29°34' W 094°56'3 6.3
2018-May-19 19:29N 29°37' W 094°57'3 6.4
2018-May-19 19:00N 29°40' W 094°59'6 0.3
2018-May-18 19:34N 29°44' W 095°03'1 6.1
2018-May-18 19:29N 29°44' W 095°03'2 5.1
2018-May-18 19:00N 29°42' W 095°01'3 5.1
2018-May-18 18:30N 29°41' W 094°58'2 4.5
2018-May-18 18:00N 29°40' W 094°56'1 2.2
2018-May-18 17:23N 29°42' W 094°55'1 1.0
2018-May-18 16:49N 29°42' W 094°56'1 2.3
2018-May-18 16:29N 29°43' W 094°56'1 1.7
2018-May-18 15:59N 29°44' W 094°56'1 2.8
2018-May-18 15:27N 29°45' W 094°56'1 0.3
2018-May-18 11:27N 29°46' W 094°55'0 0.0
2018-May-18 10:30N 29°46' W 094°55'0 0.0
2018-May-18 09:56N 29°46' W 094°55'0 0.0
2018-May-18 09:30N 29°46' W 094°55'0 0.0
2018-May-18 09:00N 29°46' W 094°55'0 0.0
2018-May-18 08:30N 29°46' W 094°55'0 0.0
2018-May-18 08:00N 29°46' W 094°55'0 0.0
2018-May-18 07:30N 29°46' W 094°55'0 0.0
2018-May-18 07:00N 29°46' W 094°55'0 0.0
2018-May-18 06:30N 29°46' W 094°55'0 0.0
2018-May-18 06:00N 29°46' W 094°55'0 0.0
2018-May-18 05:30N 29°46' W 094°55'0 0.0
2018-May-18 05:00N 29°46' W 094°55'0 0.0
2018-May-18 04:30N 29°46' W 094°55'0 0.0
2018-May-18 04:00N 29°46' W 094°55'0 0.0
2018-May-18 03:30N 29°46' W 094°55'0 0.0
2018-May-18 03:00N 29°46' W 094°55'0 0.0
2018-May-18 02:30N 29°46' W 094°55'0 0.0
2018-May-18 02:00N 29°46' W 094°55'3 1.2
2018-May-17 23:28N 29°43' W 094°57'1 2.5
2018-May-17 22:58N 29°42' W 094°56'1 1.4
2018-May-17 22:30N 29°42' W 094°55'2 3.2
2018-May-17 22:00N 29°40' W 094°56'2 3.7
2018-May-17 21:30N 29°41' W 094°58'2 3.9
2018-May-17 21:00N 29°42' W 094°60'7 0.9
2018-May-17 13:06N 29°46' W 095°06'0 0.0
2018-May-17 12:40N 29°46' W 095°06'0 0.0
2018-May-17 12:24N 29°46' W 095°06'0 0.8
2018-May-17 11:56N 29°47' W 095°06'0 0.2
2018-May-17 10:44N 29°47' W 095°06'0 0.0
2018-May-17 10:18N 29°47' W 095°06'0 0.0
2018-May-17 09:58N 29°47' W 095°06'0 0.0
2018-May-17 09:26N 29°47' W 095°06'0 0.7
2018-May-17 09:00N 29°47' W 095°06'0 0.5
2018-May-17 08:07N 29°47' W 095°06'1 0.3
2018-May-17 05:53N 29°46' W 095°06'2 4.2
2018-May-17 05:25N 29°45' W 095°04'2 3.9
2018-May-17 05:00N 29°44' W 095°03'0 0.0
2018-May-17 04:30N 29°44' W 095°03'0 0.0
2018-May-17 04:00N 29°44' W 095°03'0 0.0
2018-May-17 03:30N 29°44' W 095°03'0 0.0
2018-May-17 03:00N 29°44' W 095°03'0 0.4
2018-May-17 02:30N 29°44' W 095°03'3 6.1
2018-May-17 02:00N 29°46' W 095°06'1 1.8
2018-May-17 01:29N 29°47' W 095°06'2 3.1
2018-May-17 00:55N 29°46' W 095°04'3 7.7
2018-May-17 00:28N 29°44' W 095°01'3 7.3
2018-May-17 00:00N 29°41' W 094°59'0 0.8
2018-May-16 23:30N 29°41' W 094°58'0 0.9
2018-May-16 23:00N 29°41' W 094°58'2 4.4
2018-May-16 22:30N 29°41' W 094°55'2 1.4
2018-May-16 20:45N 29°43' W 094°57'0 0.0
2018-May-16 17:57N 29°43' W 094°57'1 0.6
2018-May-16 16:48N 29°43' W 094°56'0 0.1
2018-May-16 16:16N 29°43' W 094°56'1 1.9
2018-May-16 15:48N 29°42' W 094°55'1 2.5
2018-May-16 15:30N 29°41' W 094°55'2 3.5
2018-May-16 15:00N 29°41' W 094°57'2 4.9
2018-May-16 14:30N 29°42' W 094°60'3 5.8
2018-May-16 13:58N 29°44' W 095°02'3 6.4
2018-May-16 13:30N 29°46' W 095°05'1 2.4
2018-May-16 13:00N 29°47' W 095°06'0 0.0
2018-May-16 12:30N 29°47' W 095°06'1 1.6
2018-May-16 12:00N 29°46' W 095°06'1 1.7
2018-May-16 11:30N 29°46' W 095°05'3 5.2
2018-May-16 11:01N 29°44' W 095°03'3 5.4
2018-May-16 10:28N 29°42' W 095°00'2 4.6
2018-May-16 10:00N 29°41' W 094°58'2 4.1
2018-May-16 09:30N 29°40' W 094°56'2 3.1
2018-May-16 08:59N 29°42' W 094°55'1 1.3
2018-May-16 08:30N 29°42' W 094°56'1 1.5
2018-May-16 08:00N 29°43' W 094°56'0 0.0
2018-May-16 07:30N 29°43' W 094°56'1 1.4
2018-May-16 07:00N 29°42' W 094°56'1 1.2
2018-May-16 06:30N 29°42' W 094°55'1 2.9
2018-May-16 06:00N 29°41' W 094°56'2 3.9
2018-May-16 05:30N 29°41' W 094°58'2 4.5
2018-May-16 04:59N 29°40' W 094°56'2 3.1
2018-May-16 04:30N 29°42' W 094°56'1 1.8
2018-May-16 04:00N 29°43' W 094°56'0 0.1
2018-May-16 03:30N 29°43' W 094°56'0 0.0
2018-May-16 02:59N 29°43' W 094°56'1 1.9
2018-May-16 02:29N 29°42' W 094°55'2 3.3
2018-May-16 02:00N 29°40' W 094°56'3 5.5
2018-May-16 01:30N 29°41' W 094°59'4 6.9
2018-May-16 01:00N 29°44' W 095°02'1 0.2
2018-May-15 18:32N 29°44' W 095°03'0 7.0
2018-May-15 18:30N 29°44' W 095°03'3 6.0
2018-May-15 17:59N 29°42' W 095°00'2 4.8
2018-May-15 17:30N 29°41' W 094°58'2 4.1
2018-May-15 16:58N 29°42' W 094°55'1 1.4
2018-May-15 16:04N 29°43' W 094°56'0 0.0
2018-May-15 15:53N 29°43' W 094°56'0 0.6
2018-May-15 15:26N 29°42' W 094°56'1 1.9
2018-May-15 14:52N 29°42' W 094°55'2 4.0
2018-May-15 14:26N 29°40' W 094°56'2 4.7
2018-May-15 14:00N 29°41' W 094°58'3 5.2
2018-May-15 13:30N 29°42' W 095°01'3 5.7
2018-May-15 13:00N 29°44' W 095°03'3 5.6
2018-May-15 12:30N 29°46' W 095°06'1 1.2
2018-May-15 12:00N 29°46' W 095°06'0 0.1
2018-May-15 11:30N 29°46' W 095°06'0 0.0
2018-May-15 11:00N 29°46' W 095°06'0 0.0
2018-May-15 10:30N 29°46' W 095°06'0 0.0
2018-May-15 09:58N 29°46' W 095°06'0 0.0
2018-May-15 09:30N 29°46' W 095°06'1 0.8
2018-May-15 08:29N 29°47' W 095°06'0 0.1
2018-May-15 06:58N 29°47' W 095°06'0 0.0
2018-May-15 06:29N 29°47' W 095°06'1 1.6
2018-May-15 05:57N 29°46' W 095°06'1 0.6
2018-May-15 03:31N 29°45' W 095°06'0 0.0
2018-May-15 03:28N 29°45' W 095°06'0 0.0
2018-May-15 02:58N 29°45' W 095°06'0 0.0
2018-May-15 02:26N 29°45' W 095°06'0 0.0
2018-May-15 02:00N 29°45' W 095°06'0 0.0
2018-May-15 01:30N 29°45' W 095°06'3 0.4
2018-May-14 17:45N 29°44' W 095°09'3 0.1
2018-May-12 21:47N 29°46' W 095°06'0 0.0
2018-May-12 20:34N 29°46' W 095°06'0 0.0
2018-May-12 20:15N 29°46' W 095°06'0 0.0
2018-May-12 17:29N 29°46' W 095°06'0 0.0
2018-May-12 14:26N 29°46' W 095°06'1 0.9
2018-May-12 13:53N 29°45' W 095°06'1 0.1
2018-May-12 00:16N 29°47' W 095°06'1 3.2
2018-May-11 23:58N 29°46' W 095°05'4 2.0
2018-May-11 22:10N 29°44' W 095°09'1 6.6
2018-May-11 22:00N 29°44' W 095°08'4 5.9
2018-May-11 21:25N 29°46' W 095°05'0 0.4
2018-May-11 21:01N 29°47' W 095°05'1 0.8
2018-May-11 19:21N 29°46' W 095°06'1 0.4
2018-May-11 17:28N 29°46' W 095°05'4 0.4
2018-May-11 07:18N 29°45' W 095°10'6 1.4
2018-May-11 02:58N 29°44' W 095°03'3 5.9
2018-May-11 02:30N 29°42' W 095°01'1 2.2
2018-May-11 02:00N 29°41' W 095°01'2 4.2
2018-May-11 01:30N 29°40' W 094°59'3 6.4
2018-May-11 01:00N 29°37' W 094°58'3 6.0
2018-May-11 00:30N 29°37' W 095°01'0 0.4
2018-May-11 00:00N 29°37' W 095°01'1 1.2
2018-May-10 23:30N 29°37' W 095°01'0 0.0
2018-May-10 23:00N 29°37' W 095°01'0 0.0
2018-May-10 22:30N 29°37' W 095°01'0 0.0
2018-May-10 22:00N 29°37' W 095°01'3 5.7
2018-May-10 21:30N 29°37' W 094°58'3 6.2
2018-May-10 21:00N 29°40' W 094°59'2 3.8
2018-May-10 20:30N 29°41' W 094°57'2 2.4
2018-May-10 19:53N 29°42' W 094°56'1 1.4
2018-May-10 19:22N 29°43' W 094°56'1 1.6
2018-May-10 18:47N 29°42' W 094°55'1 2.6
2018-May-10 18:30N 29°41' W 094°55'2 3.5
2018-May-10 18:00N 29°41' W 094°57'2 4.9
2018-May-10 17:29N 29°42' W 094°60'3 5.7
2018-May-10 16:59N 29°44' W 095°02'  

Dump ship's entire track history